sensor_id;sensor_type;location;lat;lon;timestamp;pressure;altitude;pressure_sealevel;temperature;humidity
44127;BME280;29786;50.798;7.302;2023-02-22T00:02:37;99110;;;6.52;100
44127;BME280;29786;50.798;7.302;2023-02-22T00:07:33;99090;;;6.2;100
44127;BME280;29786;50.798;7.302;2023-02-22T00:12:30;99100;;;6.32;100
44127;BME280;29786;50.798;7.302;2023-02-22T00:18:40;99090;;;6.11;100
44127;BME280;29786;50.798;7.302;2023-02-22T00:23:38;99090;;;6.11;100
44127;BME280;29786;50.798;7.302;2023-02-22T00:28:34;99070;;;5.62;100
44127;BME280;29786;50.798;7.302;2023-02-22T00:33:30;99080;;;5.74;100
44127;BME280;29786;50.798;7.302;2023-02-22T00:38:26;99080;;;5.77;100
44127;BME280;29786;50.798;7.302;2023-02-22T00:44:37;99080;;;5.65;100
44127;BME280;29786;50.798;7.302;2023-02-22T00:49:34;99060;;;5.36;100
44127;BME280;29786;50.798;7.302;2023-02-22T00:54:30;99070;;;5.4;100
44127;BME280;29786;50.798;7.302;2023-02-22T00:59:27;99060;;;5.35;100
44127;BME280;29786;50.798;7.302;2023-02-22T01:05:37;99060;;;5.32;100
44127;BME280;29786;50.798;7.302;2023-02-22T01:15:30;99050;;;5.01;100
44127;BME280;29786;50.798;7.302;2023-02-22T01:20:27;99050;;;5.09;100
44127;BME280;29786;50.798;7.302;2023-02-22T01:26:38;99050;;;4.98;100
44127;BME280;29786;50.798;7.302;2023-02-22T01:31:34;99040;;;4.94;100
44127;BME280;29786;50.798;7.302;2023-02-22T01:36:31;99030;;;4.84;100
44127;BME280;29786;50.798;7.302;2023-02-22T01:41:27;99020;;;4.85;100
44127;BME280;29786;50.798;7.302;2023-02-22T01:47:38;99020;;;4.92;100
44127;BME280;29786;50.798;7.302;2023-02-22T01:52:34;99020;;;4.88;100
44127;BME280;29786;50.798;7.302;2023-02-22T01:57:32;99010;;;4.96;100
44127;BME280;29786;50.798;7.302;2023-02-22T02:02:27;99010;;;5.05;100
44127;BME280;29786;50.798;7.302;2023-02-22T02:08:41;99010;;;5.18;100
44127;BME280;29786;50.798;7.302;2023-02-22T02:13:35;99000;;;5.08;100
44127;BME280;29786;50.798;7.302;2023-02-22T02:18:31;99000;;;4.94;100
44127;BME280;29786;50.798;7.302;2023-02-22T02:29:52;99000;;;5.27;100
44127;BME280;29786;50.798;7.302;2023-02-22T02:40:08;98990;;;5.14;100
44127;BME280;29786;50.798;7.302;2023-02-22T02:45:13;98990;;;5.18;100
44127;BME280;29786;50.798;7.302;2023-02-22T02:50:42;98980;;;5.07;100
44127;BME280;29786;50.798;7.302;2023-02-22T02:55:36;98980;;;5.1;100
44127;BME280;29786;50.798;7.302;2023-02-22T03:00:32;98980;;;5.05;100
44127;BME280;29786;50.798;7.302;2023-02-22T03:05:34;98980;;;5.06;100
44127;BME280;29786;50.798;7.302;2023-02-22T03:11:45;98970;;;4.94;100
44127;BME280;29786;50.798;7.302;2023-02-22T03:16:45;98970;;;5.03;100
44127;BME280;29786;50.798;7.302;2023-02-22T03:21:38;98970;;;5.07;100
44127;BME280;29786;50.798;7.302;2023-02-22T03:26:33;98980;;;5.08;100
44127;BME280;29786;50.798;7.302;2023-02-22T03:32:40;98970;;;5.19;100
44127;BME280;29786;50.798;7.302;2023-02-22T03:37:38;98970;;;5.08;100
44127;BME280;29786;50.798;7.302;2023-02-22T03:42:33;98960;;;5.04;100
44127;BME280;29786;50.798;7.302;2023-02-22T03:47:40;98960;;;5.08;100
44127;BME280;29786;50.798;7.302;2023-02-22T03:53:40;98960;;;5.12;100
44127;BME280;29786;50.798;7.302;2023-02-22T03:58:38;98960;;;5.02;100
44127;BME280;29786;50.798;7.302;2023-02-22T04:03:32;98960;;;5.03;100
44127;BME280;29786;50.798;7.302;2023-02-22T04:08:29;98960;;;4.98;100
44127;BME280;29786;50.798;7.302;2023-02-22T04:14:40;98960;;;4.89;100
44127;BME280;29786;50.798;7.302;2023-02-22T04:19:36;98960;;;4.9;100
44127;BME280;29786;50.798;7.302;2023-02-22T04:24:33;98960;;;4.73;100
44127;BME280;29786;50.798;7.302;2023-02-22T04:29:29;98960;;;4.71;100
44127;BME280;29786;50.798;7.302;2023-02-22T04:35:40;98950;;;4.73;100
44127;BME280;29786;50.798;7.302;2023-02-22T04:40:37;98950;;;4.83;100
44127;BME280;29786;50.798;7.302;2023-02-22T04:45:33;98930;;;4.77;100
44127;BME280;29786;50.798;7.302;2023-02-22T04:50:30;98940;;;4.83;100
44127;BME280;29786;50.798;7.302;2023-02-22T04:55:26;98940;;;4.92;100
44127;BME280;29786;50.798;7.302;2023-02-22T05:01:37;98940;;;4.87;100
44127;BME280;29786;50.798;7.302;2023-02-22T05:06:33;98910;;;4.64;100
44127;BME280;29786;50.798;7.302;2023-02-22T05:11:30;98930;;;4.79;100
44127;BME280;29786;50.798;7.302;2023-02-22T05:16:26;98930;;;4.87;100
44127;BME280;29786;50.798;7.302;2023-02-22T05:22:37;98930;;;4.83;100
44127;BME280;29786;50.798;7.302;2023-02-22T05:27:34;98910;;;4.71;100
44127;BME280;29786;50.798;7.302;2023-02-22T05:32:30;98920;;;4.78;100
44127;BME280;29786;50.798;7.302;2023-02-22T05:38:41;98920;;;4.82;100
44127;BME280;29786;50.798;7.302;2023-02-22T05:43:38;98920;;;4.79;100
44127;BME280;29786;50.798;7.302;2023-02-22T05:53:30;98910;;;4.8;100
44127;BME280;29786;50.798;7.302;2023-02-22T05:58:27;98910;;;4.87;100
44127;BME280;29786;50.798;7.302;2023-02-22T06:04:38;98910;;;4.71;100
44127;BME280;29786;50.798;7.302;2023-02-22T06:09:34;98910;;;4.87;100
44127;BME280;29786;50.798;7.302;2023-02-22T06:14:31;98910;;;4.92;100
44127;BME280;29786;50.798;7.302;2023-02-22T06:25:38;98900;;;4.98;100
44127;BME280;29786;50.798;7.302;2023-02-22T06:30:34;98900;;;4.94;100
44127;BME280;29786;50.798;7.302;2023-02-22T06:35:31;98900;;;5;100
44127;BME280;29786;50.798;7.302;2023-02-22T06:40:27;98890;;;5.09;100
44127;BME280;29786;50.798;7.302;2023-02-22T06:46:38;98900;;;5.22;100
44127;BME280;29786;50.798;7.302;2023-02-22T06:51:35;98900;;;5.25;100
44127;BME280;29786;50.798;7.302;2023-02-22T06:56:31;98900;;;5.38;100
44127;BME280;29786;50.798;7.302;2023-02-22T07:01:28;98900;;;5.53;100
44127;BME280;29786;50.798;7.302;2023-02-22T07:07:38;98900;;;5.64;100
44127;BME280;29786;50.798;7.302;2023-02-22T07:12:35;98900;;;5.65;100
44127;BME280;29786;50.798;7.302;2023-02-22T07:16:17;98910;;;5.68;100
44127;BME280;29786;50.798;7.302;2023-02-22T07:17:31;98910;;;5.75;100
44127;BME280;29786;50.798;7.302;2023-02-22T07:22:28;98910;;;5.79;100
44127;BME280;29786;50.798;7.302;2023-02-22T07:28:39;98910;;;5.81;100
44127;BME280;29786;50.798;7.302;2023-02-22T07:33:35;98900;;;5.85;100
44127;BME280;29786;50.798;7.302;2023-02-22T07:38:32;98900;;;5.95;100
44127;BME280;29786;50.798;7.302;2023-02-22T07:43:28;98900;;;6.06;100
44127;BME280;29786;50.798;7.302;2023-02-22T07:49:39;98900;;;6.18;100
44127;BME280;29786;50.798;7.302;2023-02-22T07:54:35;98900;;;6.2;100
44127;BME280;29786;50.798;7.302;2023-02-22T07:59:32;98900;;;6.32;100
44127;BME280;29786;50.798;7.302;2023-02-22T08:04:28;98890;;;6.52;100
44127;BME280;29786;50.798;7.302;2023-02-22T08:10:39;98890;;;6.57;100
44127;BME280;29786;50.798;7.302;2023-02-22T08:15:37;98890;;;6.73;100
44127;BME280;29786;50.798;7.302;2023-02-22T08:20:32;98890;;;6.75;100
44127;BME280;29786;50.798;7.302;2023-02-22T08:25:29;98890;;;6.97;100
44127;BME280;29786;50.798;7.302;2023-02-22T08:31:39;98880;;;7.02;100
44127;BME280;29786;50.798;7.302;2023-02-22T08:36:40;98880;;;7.05;100
44127;BME280;29786;50.798;7.302;2023-02-22T08:41:32;98880;;;7.37;100
44127;BME280;29786;50.798;7.302;2023-02-22T08:46:29;98880;;;7.4;100
44127;BME280;29786;50.798;7.302;2023-02-22T08:52:40;98870;;;7.61;100
44127;BME280;29786;50.798;7.302;2023-02-22T08:57:36;98870;;;7.91;100
44127;BME280;29786;50.798;7.302;2023-02-22T09:02:33;98860;;;7.95;100
44127;BME280;29786;50.798;7.302;2023-02-22T09:07:29;98860;;;8.25;100
44127;BME280;29786;50.798;7.302;2023-02-22T09:13:40;98850;;;8.27;100
44127;BME280;29786;50.798;7.302;2023-02-22T09:18:37;98850;;;8.5;100
44127;BME280;29786;50.798;7.302;2023-02-22T09:23:33;98820;;;8.62;100
44127;BME280;29786;50.798;7.302;2023-02-22T09:28:29;98850;;;9.09;100
44127;BME280;29786;50.798;7.302;2023-02-22T09:34:40;98840;;;9.18;100
44127;BME280;29786;50.798;7.302;2023-02-22T09:39:37;98840;;;9.64;100
44127;BME280;29786;50.798;7.302;2023-02-22T09:44:50;98820;;;9.93;100
44127;BME280;29786;50.798;7.302;2023-02-22T09:49:35;98840;;;10.02;100
44127;BME280;29786;50.798;7.302;2023-02-22T09:55:03;98840;;;10.44;100
44127;BME280;29786;50.798;7.302;2023-02-22T10:00:37;98830;;;10.5;100
44127;BME280;29786;50.798;7.302;2023-02-22T10:05:35;98810;;;10.44;100
44127;BME280;29786;50.798;7.302;2023-02-22T10:10:31;98830;;;10.72;100
44127;BME280;29786;50.798;7.302;2023-02-22T10:15:36;98830;;;10.89;100
44127;BME280;29786;50.798;7.302;2023-02-22T10:21:41;98830;;;11.27;100
44127;BME280;29786;50.798;7.302;2023-02-22T10:26:34;98830;;;11.43;100
44127;BME280;29786;50.798;7.302;2023-02-22T10:31:32;98830;;;11.51;100
44127;BME280;29786;50.798;7.302;2023-02-22T10:36:27;98830;;;11.76;100
44127;BME280;29786;50.798;7.302;2023-02-22T10:42:37;98830;;;12.12;100
44127;BME280;29786;50.798;7.302;2023-02-22T10:47:34;98830;;;12.37;100
44127;BME280;29786;50.798;7.302;2023-02-22T10:52:32;98820;;;12.46;100
44127;BME280;29786;50.798;7.302;2023-02-22T11:03:38;98810;;;12.59;100
44127;BME280;29786;50.798;7.302;2023-02-22T11:08:34;98810;;;12.92;97.15
44127;BME280;29786;50.798;7.302;2023-02-22T11:13:32;98810;;;13;96.62
44127;BME280;29786;50.798;7.302;2023-02-22T11:18:29;98810;;;13.17;94.74
44127;BME280;29786;50.798;7.302;2023-02-22T11:24:54;98800;;;13.49;88.58
44127;BME280;29786;50.798;7.302;2023-02-22T11:29:35;98780;;;13.74;85.38
44127;BME280;29786;50.798;7.302;2023-02-22T11:34:33;98770;;;14.02;77.62
44127;BME280;29786;50.798;7.302;2023-02-22T11:39:30;98760;;;14.41;79.71
44127;BME280;29786;50.798;7.302;2023-02-22T11:45:38;98760;;;14.53;74.75
44127;BME280;29786;50.798;7.302;2023-02-22T12:01:37;98750;;;16;66.81
44127;BME280;29786;50.798;7.302;2023-02-22T12:06:42;98730;;;15.47;66.02
44127;BME280;29786;50.798;7.302;2023-02-22T12:11:38;98740;;;15.24;66.91
44127;BME280;29786;50.798;7.302;2023-02-22T12:16:35;98740;;;15.25;64.84
44127;BME280;29786;50.798;7.302;2023-02-22T12:27:40;98730;;;15.5;68.44
44127;BME280;29786;50.798;7.302;2023-02-22T12:32:37;98720;;;15.9;65.36
44127;BME280;29786;50.798;7.302;2023-02-22T12:37:46;98720;;;15.92;64.94
44127;BME280;29786;50.798;7.302;2023-02-22T12:42:30;98720;;;16.15;61.86
44127;BME280;29786;50.798;7.302;2023-02-22T12:48:42;98710;;;16.2;62.35
44127;BME280;29786;50.798;7.302;2023-02-22T12:53:36;98720;;;16.62;60.72
44127;BME280;29786;50.798;7.302;2023-02-22T12:58:35;98710;;;16.79;59.53
44127;BME280;29786;50.798;7.302;2023-02-22T13:03:30;98720;;;16.5;60.91
44127;BME280;29786;50.798;7.302;2023-02-22T13:09:45;98720;;;16.43;60.38
44127;BME280;29786;50.798;7.302;2023-02-22T13:14:47;98720;;;16.15;61.04
44127;BME280;29786;50.798;7.302;2023-02-22T13:19:37;98710;;;15.96;63.26
44127;BME280;29786;50.798;7.302;2023-02-22T13:24:35;98710;;;15.57;64.29
44127;BME280;29786;50.798;7.302;2023-02-22T13:30:41;98710;;;15.53;65.74
44127;BME280;29786;50.798;7.302;2023-02-22T13:40:45;98700;;;15.8;65.93
44127;BME280;29786;50.798;7.302;2023-02-22T13:45:34;98710;;;16.11;64.41
44127;BME280;29786;50.798;7.302;2023-02-22T13:51:42;98700;;;16.64;61.92
44127;BME280;29786;50.798;7.302;2023-02-22T13:56:40;98710;;;16.66;61.85
44127;BME280;29786;50.798;7.302;2023-02-22T14:01:48;98690;;;16.99;58.35
44127;BME280;29786;50.798;7.302;2023-02-22T14:06:38;98700;;;17.59;57.23
44127;BME280;29786;50.798;7.302;2023-02-22T14:11:39;98700;;;18.86;52.29
44127;BME280;29786;50.798;7.302;2023-02-22T14:17:37;98700;;;19.59;50.54
44127;BME280;29786;50.798;7.302;2023-02-22T14:22:33;98670;;;20.95;46.46
44127;BME280;29786;50.798;7.302;2023-02-22T14:27:38;98690;;;21.82;46.06
44127;BME280;29786;50.798;7.302;2023-02-22T14:33:48;98690;;;22.11;43.26
44127;BME280;29786;50.798;7.302;2023-02-22T14:38:37;98680;;;22.35;42.37
44127;BME280;29786;50.798;7.302;2023-02-22T14:43:34;98670;;;20.84;45.25
44127;BME280;29786;50.798;7.302;2023-02-22T14:48:34;98690;;;20.88;45.87
44127;BME280;29786;50.798;7.302;2023-02-22T14:53:43;98680;;;20.68;46.49
44127;BME280;29786;50.798;7.302;2023-02-22T14:59:43;98680;;;18.34;52.13
44127;BME280;29786;50.798;7.302;2023-02-22T15:04:34;98680;;;18.02;54.07
44127;BME280;29786;50.798;7.302;2023-02-22T15:09:30;98680;;;17.56;55.81
44127;BME280;29786;50.798;7.302;2023-02-22T15:14:27;98680;;;17.19;59.02
44127;BME280;29786;50.798;7.302;2023-02-22T15:20:37;98670;;;16.95;59.59
44127;BME280;29786;50.798;7.302;2023-02-22T15:25:34;98680;;;16.52;63.39
44127;BME280;29786;50.798;7.302;2023-02-22T15:30:31;98680;;;16.49;64.39
44127;BME280;29786;50.798;7.302;2023-02-22T15:35:28;98690;;;16.11;66.47
44127;BME280;29786;50.798;7.302;2023-02-22T15:41:38;98690;;;15.42;71.11
44127;BME280;29786;50.798;7.302;2023-02-22T15:46:34;98690;;;15.06;73.29
44127;BME280;29786;50.798;7.302;2023-02-22T15:51:31;98690;;;14.73;73.25
44127;BME280;29786;50.798;7.302;2023-02-22T15:56:28;98690;;;14.1;77.75
44127;BME280;29786;50.798;7.302;2023-02-22T16:02:38;98700;;;13.82;80.86
44127;BME280;29786;50.798;7.302;2023-02-22T16:07:35;98700;;;13.43;84.3
44127;BME280;29786;50.798;7.302;2023-02-22T16:12:31;98700;;;13.22;85.91
44127;BME280;29786;50.798;7.302;2023-02-22T16:17:32;98700;;;12.95;87.75
44127;BME280;29786;50.798;7.302;2023-02-22T16:23:46;98700;;;12.78;90.79
44127;BME280;29786;50.798;7.302;2023-02-22T16:28:35;98710;;;12.72;91.41
44127;BME280;29786;50.798;7.302;2023-02-22T16:33:31;98700;;;12.57;93.56
44127;BME280;29786;50.798;7.302;2023-02-22T16:38:30;98710;;;12.5;93.68
44127;BME280;29786;50.798;7.302;2023-02-22T16:44:39;98720;;;12.31;96.58
44127;BME280;29786;50.798;7.302;2023-02-22T16:54:33;98720;;;12.19;98.36
44127;BME280;29786;50.798;7.302;2023-02-22T17:05:39;98730;;;12.18;100
44127;BME280;29786;50.798;7.302;2023-02-22T17:10:35;98730;;;12.08;100
44127;BME280;29786;50.798;7.302;2023-02-22T17:15:32;98730;;;11.95;100
44127;BME280;29786;50.798;7.302;2023-02-22T17:20:29;98730;;;11.81;100
44127;BME280;29786;50.798;7.302;2023-02-22T17:26:39;98740;;;11.74;100
44127;BME280;29786;50.798;7.302;2023-02-22T17:31:36;98740;;;11.64;100
44127;BME280;29786;50.798;7.302;2023-02-22T17:36:32;98740;;;11.5;100
44127;BME280;29786;50.798;7.302;2023-02-22T17:41:29;98740;;;11.48;100
44127;BME280;29786;50.798;7.302;2023-02-22T17:47:40;98760;;;11.4;100
44127;BME280;29786;50.798;7.302;2023-02-22T17:52:36;98760;;;11.37;100
44127;BME280;29786;50.798;7.302;2023-02-22T17:57:32;98750;;;11.28;100
44127;BME280;29786;50.798;7.302;2023-02-22T18:02:29;98760;;;11.26;100
44127;BME280;29786;50.798;7.302;2023-02-22T18:08:40;98770;;;11.3;100
44127;BME280;29786;50.798;7.302;2023-02-22T18:13:36;98770;;;11.32;100
44127;BME280;29786;50.798;7.302;2023-02-22T18:18:33;98770;;;11.33;100
44127;BME280;29786;50.798;7.302;2023-02-22T18:23:30;98760;;;11.36;100
44127;BME280;29786;50.798;7.302;2023-02-22T18:29:40;98760;;;11.33;100
44127;BME280;29786;50.798;7.302;2023-02-22T18:34:36;98770;;;11.34;100
44127;BME280;29786;50.798;7.302;2023-02-22T18:39:33;98760;;;11.34;100
44127;BME280;29786;50.798;7.302;2023-02-22T18:44:29;98760;;;11.19;100
44127;BME280;29786;50.798;7.302;2023-02-22T18:49:26;98750;;;11.12;100
44127;BME280;29786;50.798;7.302;2023-02-22T18:55:37;98740;;;11.04;100
44127;BME280;29786;50.798;7.302;2023-02-22T19:00:33;98730;;;10.91;100
44127;BME280;29786;50.798;7.302;2023-02-22T19:05:30;98750;;;10.95;100
44127;BME280;29786;50.798;7.302;2023-02-22T19:11:40;98760;;;10.89;100
44127;BME280;29786;50.798;7.302;2023-02-22T19:16:37;98760;;;11.06;100
44127;BME280;29786;50.798;7.302;2023-02-22T19:26:30;98770;;;10.98;100
44127;BME280;29786;50.798;7.302;2023-02-22T19:31:27;98770;;;11.02;100
44127;BME280;29786;50.798;7.302;2023-02-22T19:37:37;98770;;;11.02;100
44127;BME280;29786;50.798;7.302;2023-02-22T19:42:34;98780;;;11.09;100
44127;BME280;29786;50.798;7.302;2023-02-22T19:47:30;98780;;;11.23;100
44127;BME280;29786;50.798;7.302;2023-02-22T19:52:27;98770;;;11.09;100
44127;BME280;29786;50.798;7.302;2023-02-22T19:58:38;98760;;;11.46;100
44127;BME280;29786;50.798;7.302;2023-02-22T20:03:34;98770;;;11.4;100
44127;BME280;29786;50.798;7.302;2023-02-22T20:08:30;98770;;;11.2;100
44127;BME280;29786;50.798;7.302;2023-02-22T20:13:27;98780;;;11.31;100
44127;BME280;29786;50.798;7.302;2023-02-22T20:19:38;98780;;;11;100
44127;BME280;29786;50.798;7.302;2023-02-22T20:24:34;98780;;;11.14;100
44127;BME280;29786;50.798;7.302;2023-02-22T20:29:31;98800;;;10.98;100
44127;BME280;29786;50.798;7.302;2023-02-22T20:34:28;98800;;;10.9;100
44127;BME280;29786;50.798;7.302;2023-02-22T20:40:40;98800;;;10.75;100
44127;BME280;29786;50.798;7.302;2023-02-22T20:45:35;98790;;;10.72;100
44127;BME280;29786;50.798;7.302;2023-02-22T20:50:31;98790;;;10.65;100
44127;BME280;29786;50.798;7.302;2023-02-22T20:55:28;98800;;;10.6;100
44127;BME280;29786;50.798;7.302;2023-02-22T21:01:38;98800;;;10.62;100
44127;BME280;29786;50.798;7.302;2023-02-22T21:06:36;98800;;;10.63;100
44127;BME280;29786;50.798;7.302;2023-02-22T21:11:31;98800;;;10.48;100
44127;BME280;29786;50.798;7.302;2023-02-22T21:16:29;98810;;;10.31;100
44127;BME280;29786;50.798;7.302;2023-02-22T21:22:38;98800;;;10.22;100
44127;BME280;29786;50.798;7.302;2023-02-22T21:27:35;98800;;;10.22;100
44127;BME280;29786;50.798;7.302;2023-02-22T21:32:32;98800;;;10.21;100
44127;BME280;29786;50.798;7.302;2023-02-22T21:37:28;98810;;;10.16;100
44127;BME280;29786;50.798;7.302;2023-02-22T21:43:39;98810;;;10.17;100
44127;BME280;29786;50.798;7.302;2023-02-22T21:48:37;98810;;;10.17;100
44127;BME280;29786;50.798;7.302;2023-02-22T21:53:32;98810;;;10.27;100
44127;BME280;29786;50.798;7.302;2023-02-22T21:58:28;98820;;;10.28;100
44127;BME280;29786;50.798;7.302;2023-02-22T22:04:39;98810;;;10.21;100
44127;BME280;29786;50.798;7.302;2023-02-22T22:09:36;98820;;;10.05;100
44127;BME280;29786;50.798;7.302;2023-02-22T22:14:32;98820;;;9.79;100
44127;BME280;29786;50.798;7.302;2023-02-22T22:19:29;98820;;;9.64;100
44127;BME280;29786;50.798;7.302;2023-02-22T22:25:39;98820;;;9.52;100
44127;BME280;29786;50.798;7.302;2023-02-22T22:30:36;98820;;;9.41;100
44127;BME280;29786;50.798;7.302;2023-02-22T22:35:32;98820;;;9.63;100
44127;BME280;29786;50.798;7.302;2023-02-22T22:40:29;98820;;;9.55;100
44127;BME280;29786;50.798;7.302;2023-02-22T22:46:40;98820;;;9.58;100
44127;BME280;29786;50.798;7.302;2023-02-22T22:51:37;98830;;;9.68;100
44127;BME280;29786;50.798;7.302;2023-02-22T22:56:33;98830;;;9.64;100
44127;BME280;29786;50.798;7.302;2023-02-22T22:57:47;98820;;;9.66;100
44127;BME280;29786;50.798;7.302;2023-02-22T23:01:29;98830;;;9.62;100
44127;BME280;29786;50.798;7.302;2023-02-22T23:07:40;98820;;;9.54;100
44127;BME280;29786;50.798;7.302;2023-02-22T23:12:37;98820;;;9.47;100
44127;BME280;29786;50.798;7.302;2023-02-22T23:17:33;98820;;;9.47;100
44127;BME280;29786;50.798;7.302;2023-02-22T23:22:29;98810;;;9.43;100
44127;BME280;29786;50.798;7.302;2023-02-22T23:28:40;98810;;;9.41;100
44127;BME280;29786;50.798;7.302;2023-02-22T23:33:37;98820;;;9.39;100
44127;BME280;29786;50.798;7.302;2023-02-22T23:38:33;98800;;;9.35;100
44127;BME280;29786;50.798;7.302;2023-02-22T23:43:30;98820;;;9.45;100
44127;BME280;29786;50.798;7.302;2023-02-22T23:49:40;98820;;;9.52;100
44127;BME280;29786;50.798;7.302;2023-02-22T23:54:37;98820;;;9.47;100
44127;BME280;29786;50.798;7.302;2023-02-22T23:59:33;98800;;;9.31;100
